createdAt,value
2017-12-31T00:01:34.358Z,2.40
2017-12-31T00:04:01.859Z,1.93
2017-12-31T00:06:29.366Z,1.67
2017-12-31T00:08:56.809Z,1.13
2017-12-31T00:11:24.291Z,1.40
2017-12-31T00:13:51.754Z,2.00
2017-12-31T00:16:19.220Z,0.90
2017-12-31T00:18:46.681Z,1.37
2017-12-31T00:21:14.154Z,0.97
2017-12-31T00:23:42.074Z,1.30
2017-12-31T00:26:09.511Z,0.80
2017-12-31T00:28:37.766Z,0.97
2017-12-31T00:31:05.241Z,0.70
2017-12-31T00:33:32.701Z,0.60
2017-12-31T00:36:00.170Z,0.73
2017-12-31T00:38:27.633Z,0.93
2017-12-31T00:40:55.822Z,0.80
2017-12-31T00:43:24.064Z,0.80
2017-12-31T00:45:51.538Z,0.73
2017-12-31T00:48:19.014Z,0.90
2017-12-31T00:50:47.250Z,1.00
2017-12-31T00:53:14.664Z,1.10
2017-12-31T00:55:43.809Z,0.80
2017-12-31T00:58:11.626Z,1.90
2017-12-31T01:00:39.089Z,0.90
2017-12-31T01:03:07.255Z,0.80
2017-12-31T01:05:35.467Z,1.10
2017-12-31T01:08:03.666Z,0.90
2017-12-31T01:10:31.877Z,0.93
2017-12-31T01:12:59.305Z,0.97
2017-12-31T01:15:26.739Z,1.10
2017-12-31T01:17:54.181Z,1.00
2017-12-31T01:20:21.627Z,1.00
2017-12-31T01:22:49.059Z,1.40
2017-12-31T01:25:17.263Z,1.27
2017-12-31T01:27:44.698Z,1.10
2017-12-31T01:30:12.164Z,1.33
2017-12-31T01:32:39.601Z,1.10
2017-12-31T01:35:07.034Z,0.93
2017-12-31T01:37:35.983Z,1.17
2017-12-31T01:40:04.183Z,1.40
2017-12-31T01:42:32.385Z,1.40
2017-12-31T01:45:00.637Z,1.30
2017-12-31T01:47:28.070Z,1.33
2017-12-31T01:49:56.284Z,1.33
2017-12-31T01:52:23.713Z,1.23
2017-12-31T01:54:51.148Z,1.27
2017-12-31T01:57:18.598Z,1.17
2017-12-31T01:59:46.032Z,1.07
2017-12-31T02:02:14.263Z,1.30
2017-12-31T02:04:41.771Z,1.60
2017-12-31T02:07:09.960Z,1.47
2017-12-31T02:09:38.164Z,1.73
2017-12-31T02:12:06.374Z,1.80
2017-12-31T02:14:33.803Z,1.70
2017-12-31T02:17:01.249Z,1.40
2017-12-31T02:19:28.678Z,1.43
2017-12-31T02:21:56.119Z,1.80
2017-12-31T02:24:23.555Z,1.63
2017-12-31T02:26:51.764Z,1.50
2017-12-31T02:29:19.963Z,1.57
2017-12-31T02:31:48.167Z,1.50
2017-12-31T02:34:15.602Z,1.57
2017-12-31T02:36:43.046Z,1.63
2017-12-31T02:39:10.483Z,2.00
2017-12-31T02:41:38.696Z,1.53
2017-12-31T02:44:06.907Z,1.53
2017-12-31T02:46:34.342Z,2.00
2017-12-31T02:49:01.766Z,1.87
2017-12-31T02:51:29.204Z,1.43
2017-12-31T02:53:56.631Z,1.47
2017-12-31T02:56:24.088Z,1.73
2017-12-31T02:58:51.512Z,1.20
2017-12-31T03:01:18.957Z,1.10
2017-12-31T03:03:47.146Z,1.30
2017-12-31T03:06:15.363Z,1.53
2017-12-31T03:08:43.331Z,2.20
2017-12-31T03:11:11.547Z,1.17
2017-12-31T03:13:39.737Z,1.70
2017-12-31T03:16:07.948Z,1.73
2017-12-31T03:18:36.149Z,1.53
2017-12-31T03:21:03.585Z,1.17
2017-12-31T03:23:31.026Z,1.33
2017-12-31T03:25:58.468Z,1.30
2017-12-31T03:28:25.894Z,1.47
2017-12-31T03:30:53.345Z,1.77
2017-12-31T03:33:20.773Z,1.40
2017-12-31T03:35:48.230Z,1.57
2017-12-31T03:38:15.661Z,1.40
2017-12-31T03:40:43.100Z,1.70
2017-12-31T03:43:10.542Z,3.00
2017-12-31T03:45:38.743Z,1.50
2017-12-31T03:48:06.944Z,1.47
2017-12-31T03:50:34.382Z,1.40
2017-12-31T03:53:01.860Z,1.03
2017-12-31T03:55:29.283Z,1.47
2017-12-31T03:57:57.488Z,1.33
2017-12-31T04:00:25.687Z,3.20
2017-12-31T04:02:53.576Z,1.17
2017-12-31T04:05:21.772Z,1.30
2017-12-31T04:07:49.985Z,1.40
2017-12-31T04:10:17.412Z,1.40
2017-12-31T04:12:44.846Z,1.50
2017-12-31T04:15:12.292Z,1.60
2017-12-31T04:17:39.733Z,1.20
2017-12-31T04:20:07.166Z,1.33
2017-12-31T04:22:35.370Z,1.20
2017-12-31T04:25:02.815Z,1.30
2017-12-31T04:27:30.260Z,1.43
2017-12-31T04:29:57.684Z,1.40
2017-12-31T04:32:25.128Z,1.00
2017-12-31T04:34:52.564Z,1.53
2017-12-31T04:37:20.777Z,1.20
2017-12-31T04:39:48.976Z,1.33
2017-12-31T04:42:16.407Z,1.20
2017-12-31T04:44:44.379Z,1.60
2017-12-31T04:47:11.822Z,1.30
2017-12-31T04:49:39.269Z,1.40
2017-12-31T04:52:06.717Z,1.40
2017-12-31T04:54:34.160Z,1.40
2017-12-31T04:57:02.370Z,1.10
2017-12-31T04:59:29.803Z,1.40
2017-12-31T05:01:57.247Z,1.20
2017-12-31T05:04:24.683Z,1.30
2017-12-31T05:06:52.132Z,1.70
2017-12-31T05:09:19.560Z,1.43
2017-12-31T05:11:47.774Z,1.27
2017-12-31T05:14:15.215Z,1.20
2017-12-31T05:16:42.651Z,1.20
2017-12-31T05:19:10.085Z,2.07
2017-12-31T05:21:37.528Z,1.43
2017-12-31T05:24:04.962Z,1.47
2017-12-31T05:26:33.187Z,1.30
2017-12-31T05:29:00.614Z,1.53
2017-12-31T05:31:28.047Z,1.27
2017-12-31T05:33:55.496Z,1.53
2017-12-31T05:36:23.690Z,1.50
2017-12-31T05:38:51.909Z,1.13
2017-12-31T05:41:20.111Z,1.20
2017-12-31T05:43:47.551Z,1.00
2017-12-31T05:46:14.974Z,1.20
2017-12-31T05:48:42.425Z,1.50
2017-12-31T05:51:10.623Z,1.97
2017-12-31T05:53:38.845Z,0.90
2017-12-31T05:56:06.276Z,1.40
2017-12-31T05:58:33.719Z,1.10
2017-12-31T06:01:01.147Z,1.17
2017-12-31T06:03:28.606Z,1.07
2017-12-31T06:05:56.048Z,1.30
2017-12-31T06:08:23.472Z,1.07
2017-12-31T06:10:50.915Z,1.47
2017-12-31T06:13:18.351Z,1.63
2017-12-31T06:15:45.778Z,1.20
2017-12-31T06:18:13.219Z,1.07
2017-12-31T06:20:41.429Z,1.40
2017-12-31T06:23:09.632Z,1.10
2017-12-31T06:25:37.076Z,1.00
2017-12-31T06:28:04.518Z,1.10
2017-12-31T06:30:31.963Z,1.40
2017-12-31T06:33:00.163Z,1.50
2017-12-31T06:35:28.368Z,1.30
2017-12-31T06:37:56.563Z,1.00
2017-12-31T06:40:24.768Z,1.00
2017-12-31T06:42:52.979Z,2.13
2017-12-31T06:45:20.426Z,1.23
2017-12-31T06:47:47.842Z,1.30
2017-12-31T06:50:15.288Z,1.10
2017-12-31T06:52:42.719Z,1.13
2017-12-31T06:55:10.163Z,1.03
2017-12-31T06:57:38.363Z,1.67
2017-12-31T07:00:06.581Z,1.50
2017-12-31T07:02:34.012Z,1.37
2017-12-31T07:05:01.454Z,1.23
2017-12-31T07:07:28.888Z,1.17
2017-12-31T07:09:56.318Z,0.90
2017-12-31T07:12:23.769Z,0.80
2017-12-31T07:14:51.965Z,1.63
2017-12-31T07:17:20.184Z,1.40
2017-12-31T07:19:47.606Z,1.73
2017-12-31T07:22:15.879Z,1.20
2017-12-31T07:24:43.316Z,1.10
2017-12-31T07:27:11.524Z,1.17
2017-12-31T07:29:38.956Z,1.20
2017-12-31T07:32:06.399Z,1.20
2017-12-31T07:34:33.831Z,1.30
2017-12-31T07:37:01.272Z,1.73
2017-12-31T07:39:28.708Z,1.10
2017-12-31T07:41:56.911Z,1.57
2017-12-31T07:44:25.111Z,1.20
2017-12-31T07:46:53.311Z,1.10
2017-12-31T07:49:21.508Z,1.33
2017-12-31T07:51:49.736Z,1.10
2017-12-31T07:54:17.161Z,1.07
2017-12-31T07:56:44.604Z,1.47
2017-12-31T07:59:12.037Z,1.00
2017-12-31T08:01:40.254Z,1.40
2017-12-31T08:04:07.683Z,1.20
2017-12-31T08:06:35.144Z,1.10
2017-12-31T08:09:02.576Z,0.90
2017-12-31T08:11:30.024Z,1.07
2017-12-31T08:13:57.458Z,1.00
2017-12-31T08:16:24.909Z,1.00
2017-12-31T08:18:52.342Z,0.90
2017-12-31T08:21:19.775Z,0.90
2017-12-31T08:23:47.216Z,1.10
2017-12-31T08:26:15.007Z,1.53
2017-12-31T08:28:42.447Z,1.07
2017-12-31T08:31:09.888Z,1.00
2017-12-31T08:33:37.341Z,1.20
2017-12-31T08:36:04.771Z,1.50
2017-12-31T08:38:32.986Z,1.10
2017-12-31T08:41:01.195Z,1.77
2017-12-31T08:43:28.638Z,0.90
2017-12-31T08:45:56.072Z,1.60
2017-12-31T08:48:23.583Z,1.10
2017-12-31T08:50:51.024Z,0.80
2017-12-31T08:53:18.480Z,1.47
2017-12-31T08:55:46.690Z,1.07
2017-12-31T08:58:14.377Z,1.00
2017-12-31T09:00:42.577Z,3.20
2017-12-31T09:03:10.029Z,2.83
2017-12-31T09:05:37.466Z,1.37
2017-12-31T09:08:04.903Z,2.87
2017-12-31T09:10:33.116Z,1.40
2017-12-31T09:13:00.561Z,1.50
2017-12-31T09:15:28.010Z,1.40
2017-12-31T09:17:55.446Z,1.50
2017-12-31T09:20:23.668Z,0.90
2017-12-31T09:22:51.100Z,1.33
2017-12-31T09:25:18.548Z,1.40
2017-12-31T09:27:46.508Z,0.80
2017-12-31T09:30:13.948Z,0.90
2017-12-31T09:32:41.377Z,1.10
2017-12-31T09:35:08.854Z,1.00
2017-12-31T09:37:36.291Z,1.33
2017-12-31T09:40:03.731Z,0.80
2017-12-31T09:42:31.166Z,1.00
2017-12-31T09:44:59.385Z,0.93
2017-12-31T09:47:27.587Z,0.90
2017-12-31T09:49:55.023Z,1.37
2017-12-31T09:52:22.458Z,1.10
2017-12-31T09:54:49.910Z,1.30
2017-12-31T09:57:18.107Z,0.97
2017-12-31T09:59:46.759Z,1.20
2017-12-31T10:02:14.186Z,0.80
2017-12-31T10:04:42.591Z,0.90
2017-12-31T10:07:10.034Z,1.40
2017-12-31T10:09:37.480Z,2.00
2017-12-31T10:12:04.929Z,1.13
2017-12-31T10:14:32.358Z,1.10
2017-12-31T10:16:59.856Z,1.23
2017-12-31T10:19:28.015Z,0.80
2017-12-31T10:21:55.464Z,1.07
2017-12-31T10:24:22.906Z,0.90
2017-12-31T10:26:50.351Z,1.10
2017-12-31T10:29:18.556Z,1.23
2017-12-31T10:31:46.711Z,1.00
2017-12-31T10:34:14.155Z,1.20
2017-12-31T10:36:41.606Z,1.20
2017-12-31T10:39:09.801Z,2.20
2017-12-31T10:41:38.009Z,1.10
2017-12-31T10:44:06.217Z,1.90
2017-12-31T10:46:33.667Z,1.87
2017-12-31T10:49:01.100Z,1.77
2017-12-31T10:51:28.554Z,1.10
2017-12-31T10:53:55.989Z,2.37
2017-12-31T10:56:23.434Z,1.80
2017-12-31T10:58:50.886Z,0.90
2017-12-31T11:01:19.096Z,1.20
2017-12-31T11:03:47.250Z,1.50
2017-12-31T11:06:15.032Z,1.37
2017-12-31T11:08:42.453Z,1.80
2017-12-31T11:11:09.895Z,1.30
2017-12-31T11:13:37.338Z,1.00
2017-12-31T11:16:04.781Z,1.10
2017-12-31T11:18:33.032Z,1.53
2017-12-31T11:21:01.197Z,1.97
2017-12-31T11:23:28.635Z,1.70
2017-12-31T11:25:56.079Z,1.00
2017-12-31T11:28:23.519Z,1.00
2017-12-31T11:30:51.736Z,1.00
2017-12-31T11:33:19.172Z,1.50
2017-12-31T11:35:47.637Z,1.23
2017-12-31T11:38:15.461Z,1.60
2017-12-31T11:40:42.885Z,1.10
2017-12-31T11:43:10.330Z,1.80
2017-12-31T11:45:37.767Z,2.00
2017-12-31T11:48:05.212Z,1.50
2017-12-31T11:50:33.422Z,1.07
2017-12-31T11:53:01.622Z,1.00
2017-12-31T11:55:29.067Z,1.03
2017-12-31T11:57:56.504Z,0.90
2017-12-31T12:00:23.943Z,1.50
2017-12-31T12:02:51.397Z,1.30
2017-12-31T12:05:18.839Z,1.20
2017-12-31T12:07:46.740Z,1.17
2017-12-31T12:10:14.217Z,0.90
2017-12-31T12:12:41.652Z,1.13
2017-12-31T12:15:09.097Z,1.23
2017-12-31T12:17:36.538Z,3.93
2017-12-31T12:20:04.785Z,1.17
2017-12-31T12:22:32.993Z,1.00
2017-12-31T12:25:00.432Z,1.17
2017-12-31T12:27:27.884Z,1.77
2017-12-31T12:29:56.080Z,1.03
2017-12-31T12:32:24.298Z,1.50
2017-12-31T12:34:52.550Z,1.37
2017-12-31T12:37:20.030Z,1.10
2017-12-31T12:39:48.194Z,3.20
2017-12-31T12:42:15.866Z,2.10
2017-12-31T12:44:44.098Z,1.90
2017-12-31T12:47:11.574Z,1.40
2017-12-31T12:49:39.029Z,1.67
2017-12-31T12:52:06.450Z,1.10
2017-12-31T12:54:33.930Z,1.00
2017-12-31T12:57:01.370Z,1.07
2017-12-31T12:59:28.810Z,1.30
2017-12-31T13:01:56.256Z,1.10
2017-12-31T13:04:23.709Z,1.30
2017-12-31T13:06:51.941Z,1.23
2017-12-31T13:09:19.371Z,1.40
2017-12-31T13:11:48.509Z,1.87
2017-12-31T13:14:15.986Z,1.97
2017-12-31T13:16:44.229Z,1.30
2017-12-31T13:19:11.655Z,1.40
2017-12-31T13:21:39.934Z,1.20
2017-12-31T13:24:07.366Z,1.53
2017-12-31T13:26:34.822Z,1.30
2017-12-31T13:29:02.267Z,1.00
2017-12-31T13:31:29.711Z,1.20
2017-12-31T13:33:57.154Z,1.10
2017-12-31T13:36:25.371Z,0.93
2017-12-31T13:38:52.807Z,1.47
2017-12-31T13:41:20.334Z,1.27
2017-12-31T13:43:48.767Z,2.07
2017-12-31T13:46:16.752Z,1.00
2017-12-31T13:48:44.205Z,1.10
2017-12-31T13:51:12.446Z,0.90
2017-12-31T13:53:39.927Z,0.97
2017-12-31T13:56:07.359Z,1.17
2017-12-31T13:58:35.570Z,1.60
2017-12-31T14:01:03.012Z,2.53
2017-12-31T14:03:30.501Z,1.23
2017-12-31T14:05:57.936Z,1.20
2017-12-31T14:08:25.384Z,0.70
2017-12-31T14:10:53.592Z,1.00
2017-12-31T14:13:21.054Z,0.93
2017-12-31T14:15:49.257Z,1.00
2017-12-31T14:18:17.867Z,1.40
2017-12-31T14:20:45.308Z,1.10
2017-12-31T14:23:12.811Z,1.50
2017-12-31T14:25:40.227Z,1.40
2017-12-31T14:28:07.676Z,1.60
2017-12-31T14:30:35.878Z,1.50
2017-12-31T14:33:04.084Z,1.53
2017-12-31T14:35:32.285Z,1.13
2017-12-31T14:38:00.491Z,1.00
2017-12-31T14:40:27.940Z,1.20
2017-12-31T14:42:55.388Z,1.00
2017-12-31T14:45:22.825Z,0.90
2017-12-31T14:47:51.042Z,2.50
2017-12-31T14:50:18.521Z,3.27
2017-12-31T14:52:46.004Z,1.87
2017-12-31T14:55:13.435Z,1.20
2017-12-31T14:57:40.879Z,1.63
2017-12-31T15:00:08.321Z,8.20
2017-12-31T15:02:36.526Z,4.47
2017-12-31T15:05:04.012Z,2.20
2017-12-31T15:07:32.245Z,2.00
2017-12-31T15:09:59.658Z,1.37
2017-12-31T15:12:27.723Z,1.10
2017-12-31T15:14:55.161Z,1.73
2017-12-31T15:17:22.616Z,2.43
2017-12-31T15:19:50.057Z,2.87
2017-12-31T15:22:18.197Z,3.80
2017-12-31T15:24:47.050Z,4.10
2017-12-31T15:27:14.502Z,3.93
2017-12-31T15:29:42.710Z,8.50
2017-12-31T15:32:10.933Z,7.80
2017-12-31T15:34:38.417Z,9.30
2017-12-31T15:37:05.869Z,8.23
2017-12-31T15:39:34.127Z,4.93
2017-12-31T15:42:01.574Z,7.67
2017-12-31T15:44:29.067Z,5.90
2017-12-31T15:46:56.525Z,5.80
2017-12-31T15:49:24.742Z,6.60
2017-12-31T15:51:52.222Z,8.50
2017-12-31T15:54:19.659Z,10.07
2017-12-31T15:56:47.144Z,7.80
2017-12-31T15:59:14.618Z,9.20
2017-12-31T16:01:42.050Z,6.63
2017-12-31T16:04:09.484Z,4.40
2017-12-31T16:06:36.967Z,3.40
2017-12-31T16:09:04.442Z,4.43
2017-12-31T16:11:31.867Z,5.30
2017-12-31T16:13:59.319Z,5.33
2017-12-31T16:16:27.526Z,6.13
2017-12-31T16:18:55.781Z,9.03
2017-12-31T16:21:23.259Z,18.40
2017-12-31T16:23:50.699Z,17.70
2017-12-31T16:26:18.292Z,11.40
2017-12-31T16:28:45.785Z,14.17
2017-12-31T16:31:13.264Z,45.80
2017-12-31T16:33:40.742Z,28.50
2017-12-31T16:36:08.167Z,12.53
2017-12-31T16:38:35.612Z,10.60
2017-12-31T16:41:03.043Z,6.83
2017-12-31T16:43:31.306Z,17.47
2017-12-31T16:45:58.740Z,7.60
2017-12-31T16:48:26.990Z,4.83
2017-12-31T16:50:54.410Z,4.03
2017-12-31T16:53:22.672Z,4.70
2017-12-31T16:55:50.097Z,5.43
2017-12-31T16:58:19.174Z,41.50
2017-12-31T17:00:46.849Z,16.63
2017-12-31T17:03:14.295Z,28.10
2017-12-31T17:05:41.874Z,33.83
2017-12-31T17:08:10.117Z,13.53
2017-12-31T17:10:37.593Z,22.47
2017-12-31T17:13:05.070Z,30.20
2017-12-31T17:15:32.495Z,39.57
2017-12-31T17:18:00.719Z,17.10
2017-12-31T17:20:28.906Z,8.87
2017-12-31T17:22:56.353Z,12.07
2017-12-31T17:25:23.791Z,4.67
2017-12-31T17:27:51.243Z,5.00
2017-12-31T17:30:19.490Z,3.07
2017-12-31T17:32:46.975Z,2.50
2017-12-31T17:35:14.449Z,2.07
2017-12-31T17:37:41.909Z,1.33
2017-12-31T17:40:09.382Z,1.40
2017-12-31T17:42:37.575Z,1.60
2017-12-31T17:45:05.028Z,2.13
2017-12-31T17:47:32.471Z,1.90
2017-12-31T17:49:59.953Z,1.67
2017-12-31T17:52:27.382Z,1.80
2017-12-31T17:54:55.587Z,1.40
2017-12-31T17:57:23.839Z,1.40
2017-12-31T17:59:51.278Z,3.40
2017-12-31T18:02:19.551Z,3.03
2017-12-31T18:04:47.806Z,2.10
2017-12-31T18:07:15.274Z,2.10
2017-12-31T18:09:42.737Z,2.50
2017-12-31T18:12:10.147Z,2.90
2017-12-31T18:14:37.601Z,2.40
2017-12-31T18:17:05.031Z,2.13
2017-12-31T18:19:32.483Z,1.90
2017-12-31T18:21:59.927Z,2.77
2017-12-31T18:24:28.136Z,2.27
2017-12-31T18:26:55.574Z,3.20
2017-12-31T18:29:23.062Z,5.03
2017-12-31T18:31:50.500Z,9.37
2017-12-31T18:34:18.753Z,8.63
2017-12-31T18:36:46.231Z,2.90
2017-12-31T18:39:13.661Z,2.57
2017-12-31T18:41:41.090Z,2.90
2017-12-31T18:44:08.541Z,3.70
2017-12-31T18:46:35.977Z,3.17
2017-12-31T18:49:04.190Z,3.03
2017-12-31T18:51:31.624Z,3.80
2017-12-31T18:53:59.067Z,10.50
2017-12-31T18:56:26.519Z,8.77
2017-12-31T18:58:54.796Z,11.50
2017-12-31T19:01:22.222Z,15.50
2017-12-31T19:03:49.667Z,19.83
2017-12-31T19:06:18.616Z,20.00
2017-12-31T19:08:46.063Z,23.77
2017-12-31T19:11:14.314Z,23.40
2017-12-31T19:13:41.756Z,14.60
2017-12-31T19:16:09.196Z,13.73
2017-12-31T19:18:36.643Z,16.63
2017-12-31T19:21:04.092Z,13.27
2017-12-31T19:23:31.585Z,14.83
2017-12-31T19:25:59.011Z,13.03
2017-12-31T19:28:26.461Z,17.53
2017-12-31T19:30:53.906Z,12.77
2017-12-31T19:33:22.118Z,18.47
2017-12-31T19:35:50.093Z,20.60
2017-12-31T19:38:18.926Z,18.37
2017-12-31T19:40:47.116Z,9.53
2017-12-31T19:43:14.626Z,13.67
2017-12-31T19:45:42.077Z,17.60
2017-12-31T19:48:09.515Z,11.90
2017-12-31T19:50:36.967Z,11.00
2017-12-31T19:53:04.453Z,13.27
2017-12-31T19:55:31.942Z,13.07
2017-12-31T19:57:59.423Z,13.67
2017-12-31T20:00:26.865Z,12.40
2017-12-31T20:02:55.072Z,12.93
2017-12-31T20:05:22.522Z,9.83
2017-12-31T20:07:49.962Z,11.23
2017-12-31T20:10:17.796Z,7.90
2017-12-31T20:12:45.218Z,9.67
2017-12-31T20:15:12.707Z,5.80
2017-12-31T20:17:40.174Z,6.03
2017-12-31T20:20:07.603Z,5.57
2017-12-31T20:22:35.082Z,7.40
2017-12-31T20:25:02.553Z,5.97
2017-12-31T20:27:29.974Z,8.80
2017-12-31T20:29:58.230Z,8.87
2017-12-31T20:32:26.453Z,5.10
2017-12-31T20:34:53.939Z,10.87
2017-12-31T20:37:21.366Z,7.80
2017-12-31T20:39:49.763Z,13.47
2017-12-31T20:42:17.239Z,10.20
2017-12-31T20:44:44.685Z,11.70
2017-12-31T20:47:12.117Z,18.23
2017-12-31T20:49:39.619Z,18.20
2017-12-31T20:52:07.095Z,10.40
2017-12-31T20:54:34.565Z,13.90
2017-12-31T20:57:02.047Z,12.13
2017-12-31T20:59:29.525Z,9.20
2017-12-31T21:01:57.007Z,11.60
2017-12-31T21:04:24.485Z,10.63
2017-12-31T21:06:51.964Z,7.30
2017-12-31T21:09:20.148Z,8.30
2017-12-31T21:11:47.979Z,6.90
2017-12-31T21:14:16.163Z,8.00
2017-12-31T21:16:43.650Z,9.20
2017-12-31T21:19:11.078Z,11.10
2017-12-31T21:21:38.561Z,8.53
2017-12-31T21:24:06.843Z,8.50
2017-12-31T21:26:34.316Z,16.23
2017-12-31T21:29:01.755Z,60.57
2017-12-31T21:31:29.248Z,44.30
2017-12-31T21:33:56.710Z,29.60
2017-12-31T21:36:24.186Z,30.50
2017-12-31T21:38:51.658Z,21.77
2017-12-31T21:41:19.904Z,33.93
2017-12-31T21:43:47.339Z,32.70
2017-12-31T21:46:14.843Z,26.57
2017-12-31T21:48:42.322Z,26.83
2017-12-31T21:51:09.757Z,22.70
2017-12-31T21:53:37.997Z,27.00
2017-12-31T21:56:05.480Z,19.57
2017-12-31T21:58:32.949Z,24.30
2017-12-31T22:01:01.209Z,29.10
2017-12-31T22:03:28.676Z,13.90
2017-12-31T22:05:56.158Z,6.30
2017-12-31T22:08:23.587Z,7.30
2017-12-31T22:10:52.617Z,7.87
2017-12-31T22:13:20.898Z,7.00
2017-12-31T22:15:49.674Z,12.57
2017-12-31T22:18:17.137Z,10.80
2017-12-31T22:20:44.613Z,10.97
2017-12-31T22:23:12.098Z,13.47
2017-12-31T22:25:39.579Z,10.43
2017-12-31T22:28:06.999Z,10.70
2017-12-31T22:30:35.267Z,11.53
2017-12-31T22:33:02.691Z,10.50
2017-12-31T22:35:30.905Z,11.53
2017-12-31T22:37:58.395Z,20.17
2017-12-31T22:40:25.880Z,52.00
2017-12-31T22:42:53.370Z,53.73
2017-12-31T22:45:20.846Z,25.83
2017-12-31T22:47:48.641Z,17.90
2017-12-31T22:50:16.077Z,16.77
2017-12-31T22:52:44.273Z,16.50
2017-12-31T22:55:12.525Z,15.93
2017-12-31T22:57:39.979Z,14.67
2017-12-31T23:00:08.222Z,16.10
2017-12-31T23:02:35.709Z,13.00
2017-12-31T23:05:03.138Z,12.50
2017-12-31T23:07:30.575Z,19.50
2017-12-31T23:09:58.070Z,37.70
2017-12-31T23:12:25.501Z,102.10
2017-12-31T23:14:52.956Z,117.00
2017-12-31T23:17:20.397Z,112.70
2017-12-31T23:19:47.870Z,118.73
2017-12-31T23:22:15.317Z,126.67
2017-12-31T23:24:42.775Z,121.43
2017-12-31T23:27:10.264Z,59.53
2017-12-31T23:29:37.651Z,40.67
2017-12-31T23:32:05.158Z,27.70
2017-12-31T23:34:32.625Z,23.20
2017-12-31T23:37:00.091Z,18.60
2017-12-31T23:39:27.537Z,37.60
2017-12-31T23:41:54.983Z,18.67
2017-12-31T23:44:22.420Z,13.40
2017-12-31T23:46:50.453Z,9.00
2017-12-31T23:49:17.884Z,8.60
2017-12-31T23:51:46.146Z,7.77
2017-12-31T23:54:13.613Z,7.20
2017-12-31T23:56:41.089Z,6.83
2017-12-31T23:59:08.558Z,7.37
